createdAt,value
2022-09-01T00:02:02.836Z,69.41
2022-09-01T00:12:32.077Z,70.44
2022-09-01T00:22:42.899Z,71.52
2022-09-01T00:33:09.175Z,72.51
2022-09-01T00:43:29.801Z,73.42
2022-09-01T00:53:45.974Z,74.34
2022-09-01T01:04:33.567Z,75.18
2022-09-01T01:14:50.604Z,75.72
2022-09-01T01:25:31.269Z,75.98
2022-09-01T01:36:19.126Z,76.51
2022-09-01T01:47:26.978Z,76.92
2022-09-01T01:58:16.118Z,77.26
2022-09-01T02:09:14.921Z,77.03
2022-09-01T02:19:51.938Z,78.53
2022-09-01T02:30:23.980Z,78.48
2022-09-01T02:41:23.128Z,77.82
2022-09-01T02:52:28.212Z,78.45
2022-09-01T03:02:47.618Z,78.53
2022-09-01T03:13:48.638Z,78.17
2022-09-01T03:24:48.246Z,81.41
2022-09-01T03:35:13.057Z,82.53
2022-09-01T03:45:43.384Z,83.20
2022-09-01T03:56:11.268Z,83.46
2022-09-01T04:07:24.620Z,83.68
2022-09-01T04:18:10.920Z,84.19
2022-09-01T04:29:19.432Z,84.37
2022-09-01T04:40:25.650Z,84.94
2022-09-01T04:51:13.244Z,85.35
2022-09-01T05:01:30.694Z,85.55
2022-09-01T05:12:36.766Z,85.94
2022-09-01T05:22:59.318Z,86.01
2022-09-01T05:33:27.363Z,85.96
2022-09-01T05:44:00.822Z,85.44
2022-09-01T05:54:40.438Z,82.68
2022-09-01T06:04:50.162Z,79.33
2022-09-01T06:15:02.667Z,78.63
2022-09-01T06:25:12.741Z,78.07
2022-09-01T06:35:42.608Z,77.28
2022-09-01T06:45:55.019Z,75.52
2022-09-01T06:56:05.377Z,74.02
2022-09-01T07:17:23.628Z,70.47
2022-09-01T07:27:56.093Z,68.94
2022-09-01T07:59:14.671Z,63.24
2022-09-01T08:09:56.094Z,61.49
2022-09-01T08:20:18.391Z,61.74
2022-09-01T08:30:52.182Z,60.55
2022-09-01T08:41:03.784Z,61.89
2022-09-01T08:51:41.746Z,63.42
2022-09-01T09:02:20.945Z,63.60
2022-09-01T09:12:57.381Z,64.06
2022-09-01T09:23:39.052Z,63.66
2022-09-01T09:34:53.292Z,63.15
2022-09-01T09:45:12.993Z,60.10
2022-09-01T09:55:33.855Z,56.38
2022-09-01T10:05:51.863Z,55.68
2022-09-01T10:16:12.017Z,52.93
2022-09-01T10:39:04.679Z,52.70
2022-09-01T10:49:27.545Z,51.74
2022-09-01T10:59:41.750Z,49.85
2022-09-01T11:10:36.352Z,49.69
2022-09-01T11:20:45.803Z,48.65
2022-09-01T11:31:14.661Z,48.28
2022-09-01T11:41:37.807Z,47.11
2022-09-01T11:51:48.325Z,46.57
2022-09-01T12:01:58.481Z,46.02
2022-09-01T12:12:02.866Z,46.12
2022-09-01T12:22:22.589Z,46.00
2022-09-01T12:32:37.058Z,45.01
2022-09-01T12:42:54.083Z,45.29
2022-09-01T12:53:08.456Z,44.23
2022-09-01T13:03:20.936Z,44.74
2022-09-01T13:13:27.223Z,44.94
2022-09-01T13:23:56.844Z,44.97
2022-09-01T13:34:37.198Z,43.99
2022-09-01T13:45:13.308Z,43.73
2022-09-01T13:55:49.467Z,43.07
2022-09-01T14:06:11.876Z,43.94
2022-09-01T14:16:25.111Z,43.94
2022-09-01T14:26:41.624Z,42.76
2022-09-01T14:36:56.167Z,43.12
2022-09-01T14:47:06.658Z,43.19
2022-09-01T14:57:36.615Z,43.67
2022-09-01T15:07:43.116Z,43.85
2022-09-01T15:18:36.965Z,42.07
2022-09-01T15:28:47.158Z,42.31
2022-09-01T15:38:53.090Z,42.63
2022-09-01T15:49:09.950Z,43.42
2022-09-01T15:59:21.936Z,42.89
2022-09-01T16:09:27.943Z,42.85
2022-09-01T16:20:11.189Z,43.13
2022-09-01T16:30:27.551Z,43.63
2022-09-01T16:41:08.384Z,44.18
2022-09-01T16:51:49.004Z,44.26
2022-09-01T17:02:12.533Z,44.68
2022-09-01T17:13:13.526Z,45.36
2022-09-01T17:24:24.377Z,46.47
2022-09-01T17:34:50.009Z,47.79
2022-09-01T17:45:55.379Z,50.31
2022-09-01T17:56:52.332Z,50.67
2022-09-01T18:07:16.031Z,51.21
2022-09-01T18:17:48.028Z,52.25
2022-09-01T18:27:59.795Z,53.39
2022-09-01T18:38:32.181Z,54.77
2022-09-01T18:49:35.136Z,55.90
2022-09-01T19:00:25.595Z,57.04
2022-09-01T19:11:18.124Z,57.90
2022-09-01T19:21:39.386Z,59.37
2022-09-01T19:32:02.815Z,60.71
2022-09-01T19:42:56.700Z,62.15
2022-09-01T19:53:13.352Z,62.91
2022-09-01T20:03:37.607Z,63.26
2022-09-01T20:14:33.664Z,63.73
2022-09-01T20:24:47.656Z,64.55
2022-09-01T20:35:17.123Z,65.36
2022-09-01T20:45:46.491Z,66.91
2022-09-01T20:56:19.432Z,67.60
2022-09-01T21:07:13.257Z,68.19
2022-09-01T21:17:47.680Z,68.44
2022-09-01T21:28:42.992Z,68.90
2022-09-01T21:39:35.620Z,69.28
2022-09-01T21:49:57.551Z,70.06
2022-09-01T22:01:01.693Z,70.33
2022-09-01T22:11:27.845Z,70.78
2022-09-01T22:22:37.094Z,71.80
2022-09-01T22:33:16.384Z,72.77
2022-09-01T22:43:41.794Z,72.52
2022-09-01T22:54:18.416Z,73.04
2022-09-01T23:04:25.198Z,73.32
2022-09-01T23:14:56.082Z,73.90
2022-09-01T23:25:31.198Z,74.97
2022-09-01T23:36:19.338Z,75.78
2022-09-01T23:47:14.619Z,75.55
2022-09-01T23:57:40.702Z,75.49
